createdAt,value
2022-09-28T00:01:57.466Z,8.07
2022-09-28T00:04:26.012Z,9.70
2022-09-28T00:06:54.591Z,8.40
2022-09-28T00:09:23.078Z,11.30
2022-09-28T00:11:53.686Z,8.10
2022-09-28T00:14:22.453Z,9.17
2022-09-28T00:16:51.124Z,10.30
2022-09-28T00:19:19.795Z,10.23
2022-09-28T00:21:48.524Z,9.60
2022-09-28T00:24:17.486Z,10.53
2022-09-28T00:26:49.385Z,8.77
2022-09-28T00:29:23.619Z,8.43
2022-09-28T00:32:03.046Z,9.57
2022-09-28T00:34:43.294Z,10.27
2022-09-28T00:37:18.965Z,10.23
2022-09-28T00:39:51.993Z,11.00
2022-09-28T00:42:24.267Z,10.77
2022-09-28T00:44:59.724Z,10.23
2022-09-28T00:47:49.958Z,8.20
2022-09-28T00:50:28.239Z,8.47
2022-09-28T00:53:15.484Z,10.53
2022-09-28T00:55:49.876Z,9.03
2022-09-28T00:58:22.950Z,8.50
2022-09-28T01:00:58.480Z,8.50
2022-09-28T01:03:29.738Z,11.67
2022-09-28T01:06:11.218Z,12.37
2022-09-28T01:08:42.152Z,9.50
2022-09-28T01:11:11.343Z,8.50
2022-09-28T01:13:41.910Z,11.77
2022-09-28T01:16:19.330Z,8.80
2022-09-28T01:19:00.840Z,8.23
2022-09-28T01:21:43.573Z,9.80
2022-09-28T01:24:40.194Z,8.07
2022-09-28T01:27:16.781Z,8.10
2022-09-28T01:29:56.622Z,7.93
2022-09-28T01:32:36.461Z,10.27
2022-09-28T01:35:09.718Z,9.70
2022-09-28T01:37:45.861Z,9.53
2022-09-28T01:40:16.794Z,8.27
2022-09-28T01:42:54.342Z,9.30
2022-09-28T01:45:28.675Z,8.60
2022-09-28T01:48:03.114Z,10.10
2022-09-28T01:50:37.234Z,7.73
2022-09-28T01:53:12.411Z,10.07
2022-09-28T01:55:45.570Z,8.77
2022-09-28T01:58:20.246Z,9.90
2022-09-28T02:00:54.785Z,9.83
2022-09-28T02:03:30.658Z,10.17
2022-09-28T02:06:07.172Z,8.70
2022-09-28T02:08:41.296Z,8.07
2022-09-28T02:11:14.881Z,9.60
2022-09-28T02:13:49.879Z,8.73
2022-09-28T02:16:24.087Z,7.57
2022-09-28T02:18:53.475Z,12.23
2022-09-28T02:21:27.584Z,10.90
2022-09-28T02:24:01.129Z,9.60
2022-09-28T02:26:34.478Z,10.87
2022-09-28T02:29:05.516Z,12.10
2022-09-28T02:31:34.371Z,10.90
2022-09-28T02:34:03.472Z,12.30
2022-09-28T02:36:33.765Z,10.70
2022-09-28T02:39:03.074Z,10.10
2022-09-28T02:41:43.095Z,10.27
2022-09-28T02:44:25.743Z,11.17
2022-09-28T02:47:01.389Z,9.70
2022-09-28T02:49:41.770Z,11.07
2022-09-28T02:52:26.870Z,11.70
2022-09-28T02:55:11.666Z,9.37
2022-09-28T02:57:49.707Z,10.57
2022-09-28T03:00:22.921Z,8.23
2022-09-28T03:03:02.370Z,9.87
2022-09-28T03:05:42.749Z,8.03
2022-09-28T03:08:17.490Z,13.37
2022-09-28T03:10:51.383Z,9.17
2022-09-28T03:13:20.503Z,9.73
2022-09-28T03:15:50.890Z,9.60
2022-09-28T03:18:20.439Z,11.20
2022-09-28T03:20:50.177Z,9.00
2022-09-28T03:23:26.150Z,7.33
2022-09-28T03:25:55.028Z,8.87
2022-09-28T03:28:23.685Z,11.17
2022-09-28T03:30:54.358Z,12.00
2022-09-28T03:33:24.416Z,9.37
2022-09-28T03:35:53.450Z,8.97
2022-09-28T03:38:23.049Z,10.63
2022-09-28T03:40:55.480Z,9.43
2022-09-28T03:43:25.935Z,8.97
2022-09-28T03:46:00.410Z,7.93
2022-09-28T03:48:33.041Z,11.60
2022-09-28T03:51:03.519Z,9.13
2022-09-28T03:53:32.439Z,10.80
2022-09-28T03:56:05.450Z,9.80
2022-09-28T03:58:35.462Z,10.60
2022-09-28T04:01:10.787Z,10.13
2022-09-28T04:03:42.103Z,17.50
2022-09-28T04:06:11.481Z,24.70
2022-09-28T04:08:40.511Z,13.53
2022-09-28T04:11:09.177Z,9.87
2022-09-28T04:13:38.171Z,9.70
2022-09-28T04:16:12.701Z,9.80
2022-09-28T04:18:45.164Z,11.10
2022-09-28T04:21:51.115Z,10.77
2022-09-28T04:24:20.363Z,12.53
2022-09-28T04:26:49.798Z,15.00
2022-09-28T04:29:19.185Z,12.53
2022-09-28T04:32:02.145Z,14.07
2022-09-28T04:34:43.759Z,15.00
2022-09-28T04:37:13.385Z,12.37
2022-09-28T04:39:46.152Z,13.63
2022-09-28T04:42:19.256Z,16.37
2022-09-28T04:44:48.463Z,17.03
2022-09-28T04:47:18.923Z,14.37
2022-09-28T04:49:47.659Z,12.23
2022-09-28T04:52:20.713Z,14.37
2022-09-28T04:54:50.764Z,13.83
2022-09-28T04:57:19.509Z,12.37
2022-09-28T04:59:48.069Z,16.57
2022-09-28T05:02:17.927Z,10.37
2022-09-28T05:05:15.742Z,12.83
2022-09-28T05:08:00.124Z,14.67
2022-09-28T05:10:28.682Z,14.23
2022-09-28T05:12:57.351Z,12.57
2022-09-28T05:15:26.070Z,12.60
2022-09-28T05:17:56.429Z,11.87
2022-09-28T05:20:42.317Z,9.97
2022-09-28T05:23:12.574Z,13.23
2022-09-28T05:25:43.316Z,11.73
2022-09-28T05:28:28.355Z,11.03
2022-09-28T05:31:15.727Z,13.10
2022-09-28T05:34:11.005Z,11.53
2022-09-28T05:36:40.308Z,11.13
2022-09-28T05:39:09.939Z,14.50
2022-09-28T05:41:38.778Z,15.50
2022-09-28T05:44:07.504Z,12.47
2022-09-28T05:46:37.649Z,11.43
2022-09-28T05:49:06.381Z,11.43
2022-09-28T05:51:38.335Z,9.20
2022-09-28T05:54:07.681Z,10.73
2022-09-28T05:56:39.905Z,10.43
2022-09-28T05:59:09.633Z,11.97
2022-09-28T06:01:39.141Z,15.40
2022-09-28T06:04:10.846Z,9.60
2022-09-28T06:06:41.462Z,12.87
2022-09-28T06:09:10.795Z,9.03
2022-09-28T06:12:00.634Z,10.30
2022-09-28T06:14:37.550Z,12.03
2022-09-28T06:17:06.460Z,11.03
2022-09-28T06:19:35.782Z,10.23
2022-09-28T06:22:29.078Z,8.27
2022-09-28T06:25:05.743Z,9.53
2022-09-28T06:27:34.977Z,11.80
2022-09-28T06:30:03.563Z,9.50
2022-09-28T06:32:32.176Z,8.43
2022-09-28T06:35:00.945Z,10.90
2022-09-28T06:37:33.004Z,6.70
2022-09-28T06:40:03.081Z,7.00
2022-09-28T06:42:32.181Z,7.30
2022-09-28T06:45:25.411Z,6.63
2022-09-28T06:48:12.222Z,5.50
2022-09-28T06:50:42.521Z,9.20
2022-09-28T06:53:32.611Z,8.03
2022-09-28T06:56:12.269Z,6.73
2022-09-28T06:58:40.829Z,7.20
2022-09-28T07:01:12.042Z,8.53
2022-09-28T07:04:03.687Z,12.30
2022-09-28T07:07:03.928Z,17.07
2022-09-28T07:09:56.290Z,11.73
2022-09-28T07:12:42.689Z,12.20
2022-09-28T07:15:25.776Z,9.70
2022-09-28T07:18:02.778Z,8.93
2022-09-28T07:20:40.512Z,17.50
2022-09-28T07:23:19.071Z,7.07
2022-09-28T07:26:09.288Z,8.30
2022-09-28T07:28:56.480Z,9.20
2022-09-28T07:31:35.252Z,5.77
2022-09-28T07:34:27.026Z,6.00
2022-09-28T07:37:00.820Z,8.03
2022-09-28T07:39:30.086Z,5.57
2022-09-28T07:42:02.654Z,5.80
2022-09-28T07:44:33.787Z,5.77
2022-09-28T07:47:02.667Z,4.83
2022-09-28T07:49:57.603Z,4.43
2022-09-28T07:52:45.866Z,7.90
2022-09-28T07:55:25.966Z,5.37
2022-09-28T07:58:22.339Z,4.93
2022-09-28T08:01:11.192Z,7.90
2022-09-28T08:03:45.148Z,6.87
2022-09-28T08:06:15.322Z,12.93
2022-09-28T08:08:44.825Z,6.37
2022-09-28T08:11:18.803Z,6.50
2022-09-28T08:14:15.095Z,5.33
2022-09-28T08:17:16.092Z,5.07
2022-09-28T08:20:08.499Z,5.97
2022-09-28T08:22:37.303Z,6.70
2022-09-28T08:25:07.395Z,6.53
2022-09-28T08:27:35.983Z,5.00
2022-09-28T08:30:08.411Z,5.63
2022-09-28T08:32:49.417Z,5.70
2022-09-28T08:35:39.016Z,4.43
2022-09-28T08:38:23.423Z,6.00
2022-09-28T08:41:06.269Z,6.30
2022-09-28T08:44:02.274Z,6.73
2022-09-28T08:46:56.656Z,5.53
2022-09-28T08:49:51.892Z,5.43
2022-09-28T08:52:49.096Z,4.53
2022-09-28T08:55:50.486Z,4.73
2022-09-28T08:58:25.235Z,5.37
2022-09-28T09:00:54.621Z,6.07
2022-09-28T09:03:34.067Z,4.47
2022-09-28T09:06:54.324Z,5.43
2022-09-28T09:09:48.640Z,4.80
2022-09-28T09:12:25.195Z,4.57
2022-09-28T09:15:18.218Z,5.33
2022-09-28T09:17:58.420Z,5.30
2022-09-28T09:20:49.385Z,6.03
2022-09-28T09:23:37.226Z,6.03
2022-09-28T09:26:19.144Z,5.43
2022-09-28T09:29:07.148Z,4.90
2022-09-28T09:32:04.189Z,5.07
2022-09-28T09:35:05.087Z,5.00
2022-09-28T09:38:24.468Z,5.00
2022-09-28T09:41:43.382Z,5.00
2022-09-28T09:44:36.432Z,4.23
2022-09-28T09:47:42.998Z,3.60
2022-09-28T09:50:30.328Z,3.67
2022-09-28T09:53:06.168Z,4.07
2022-09-28T09:55:43.453Z,7.70
2022-09-28T09:58:35.609Z,4.53
2022-09-28T10:01:35.928Z,5.77
2022-09-28T10:04:39.279Z,3.93
2022-09-28T10:07:22.149Z,5.20
2022-09-28T10:09:54.033Z,3.83
2022-09-28T10:12:49.447Z,13.37
2022-09-28T10:15:24.901Z,4.30
2022-09-28T10:18:14.090Z,4.40
2022-09-28T10:21:01.287Z,4.93
2022-09-28T10:23:46.019Z,4.53
2022-09-28T10:26:25.025Z,3.83
2022-09-28T10:29:03.338Z,4.50
2022-09-28T10:31:41.257Z,3.23
2022-09-28T10:34:18.794Z,3.20
2022-09-28T10:36:51.964Z,7.17
2022-09-28T10:39:29.483Z,4.10
2022-09-28T10:42:03.531Z,3.53
2022-09-28T10:44:39.539Z,3.73
2022-09-28T10:47:26.597Z,2.43
2022-09-28T10:49:57.017Z,5.17
2022-09-28T10:52:41.710Z,4.23
2022-09-28T10:55:32.509Z,3.57
2022-09-28T10:58:02.127Z,2.17
2022-09-28T11:00:44.689Z,2.40
2022-09-28T11:03:21.909Z,3.30
2022-09-28T11:05:59.381Z,2.80
2022-09-28T11:08:32.513Z,2.60
2022-09-28T11:11:10.541Z,6.13
2022-09-28T11:13:42.834Z,2.00
2022-09-28T11:16:28.525Z,5.50
2022-09-28T11:18:59.102Z,2.63
2022-09-28T11:21:31.209Z,3.87
2022-09-28T11:24:20.567Z,2.07
2022-09-28T11:26:53.647Z,1.77
2022-09-28T11:29:35.815Z,2.33
2022-09-28T11:32:24.997Z,2.40
2022-09-28T11:35:19.653Z,2.93
2022-09-28T11:38:02.315Z,2.40
2022-09-28T11:41:21.208Z,1.80
2022-09-28T11:44:03.705Z,5.33
2022-09-28T11:46:39.810Z,4.63
2022-09-28T11:49:26.900Z,4.60
2022-09-28T11:52:00.286Z,2.50
2022-09-28T11:54:33.871Z,5.77
2022-09-28T11:57:06.448Z,2.53
2022-09-28T11:59:40.938Z,2.47
2022-09-28T12:02:17.772Z,2.50
2022-09-28T12:05:03.241Z,3.00
2022-09-28T12:07:38.243Z,2.40
2022-09-28T12:10:17.344Z,6.23
2022-09-28T12:12:50.772Z,9.23
2022-09-28T12:15:24.213Z,4.67
2022-09-28T12:17:56.336Z,4.83
2022-09-28T12:20:30.370Z,8.37
2022-09-28T12:23:06.886Z,3.40
2022-09-28T12:25:52.767Z,2.93
2022-09-28T12:28:31.583Z,2.83
2022-09-28T12:31:08.991Z,3.40
2022-09-28T12:33:38.937Z,3.43
2022-09-28T12:36:26.183Z,3.20
2022-09-28T12:39:41.197Z,6.63
2022-09-28T12:42:16.985Z,4.37
2022-09-28T12:45:18.858Z,5.07
2022-09-28T12:48:11.429Z,4.10
2022-09-28T12:50:56.082Z,3.43
2022-09-28T12:53:45.747Z,4.10
2022-09-28T12:56:24.616Z,4.20
2022-09-28T12:59:07.489Z,3.70
2022-09-28T13:01:55.163Z,10.10
2022-09-28T13:04:45.167Z,5.97
2022-09-28T13:07:21.362Z,3.90
2022-09-28T13:10:04.033Z,4.73
2022-09-28T13:12:44.289Z,5.77
2022-09-28T13:15:33.405Z,12.83
2022-09-28T13:18:12.063Z,12.27
2022-09-28T13:20:50.027Z,9.83
2022-09-28T13:23:22.046Z,9.57
2022-09-28T13:25:57.485Z,17.80
2022-09-28T13:28:28.353Z,18.13
2022-09-28T13:33:36.887Z,18.87
2022-09-28T13:36:27.247Z,12.90
2022-09-28T13:38:57.321Z,8.23
2022-09-28T13:41:31.777Z,4.27
2022-09-28T13:44:24.852Z,5.87
2022-09-28T13:47:13.370Z,3.27
2022-09-28T13:49:53.242Z,3.23
2022-09-28T13:52:33.781Z,5.40
2022-09-28T13:55:26.385Z,4.30
2022-09-28T13:58:01.942Z,2.83
2022-09-28T14:00:34.733Z,3.73
2022-09-28T14:03:13.259Z,4.33
2022-09-28T14:06:08.152Z,11.10
2022-09-28T14:08:40.082Z,7.73
2022-09-28T14:11:43.132Z,6.73
2022-09-28T14:14:50.450Z,5.03
2022-09-28T14:17:55.400Z,5.80
2022-09-28T14:20:27.207Z,6.50
2022-09-28T14:23:19.100Z,5.63
2022-09-28T14:26:03.989Z,6.87
2022-09-28T14:28:49.132Z,6.30
2022-09-28T14:31:26.964Z,6.90
2022-09-28T14:33:58.230Z,5.73
2022-09-28T14:36:52.489Z,3.87
2022-09-28T14:39:41.289Z,3.10
2022-09-28T14:42:12.727Z,3.23
2022-09-28T14:45:18.126Z,3.47
2022-09-28T14:48:20.783Z,3.57
2022-09-28T14:50:50.072Z,4.33
2022-09-28T14:53:21.986Z,5.63
2022-09-28T14:55:53.729Z,8.00
2022-09-28T14:58:26.745Z,11.40
2022-09-28T15:01:02.034Z,4.30
2022-09-28T15:03:35.823Z,10.93
2022-09-28T15:06:04.618Z,7.37
2022-09-28T15:08:40.478Z,5.53
2022-09-28T15:11:16.057Z,5.43
2022-09-28T15:13:45.445Z,6.00
2022-09-28T15:16:15.768Z,5.40
2022-09-28T15:19:22.840Z,4.97
2022-09-28T15:21:52.565Z,4.30
2022-09-28T15:24:35.653Z,6.47
2022-09-28T15:27:14.409Z,8.83
2022-09-28T15:29:43.048Z,4.50
2022-09-28T15:32:25.176Z,6.07
2022-09-28T15:34:57.068Z,4.53
2022-09-28T15:37:28.735Z,5.07
2022-09-28T15:39:59.269Z,4.87
2022-09-28T15:42:28.005Z,4.13
2022-09-28T15:45:26.784Z,8.20
2022-09-28T15:48:18.897Z,5.07
2022-09-28T15:51:10.981Z,5.30
2022-09-28T15:53:44.822Z,4.50
2022-09-28T15:56:13.752Z,5.37
2022-09-28T15:58:42.956Z,6.03
2022-09-28T16:01:36.196Z,6.57
2022-09-28T16:04:37.729Z,7.57
2022-09-28T16:07:20.220Z,7.57
2022-09-28T16:10:01.178Z,11.70
2022-09-28T16:12:41.778Z,8.37
2022-09-28T16:15:20.484Z,7.73
2022-09-28T16:17:54.685Z,7.03
2022-09-28T16:20:29.547Z,6.73
2022-09-28T16:23:05.828Z,5.90
2022-09-28T16:25:39.165Z,6.60
2022-09-28T16:28:09.110Z,28.80
2022-09-28T16:30:38.699Z,39.53
2022-09-28T16:33:28.947Z,19.53
2022-09-28T16:36:02.545Z,16.30
2022-09-28T16:38:32.874Z,28.63
2022-09-28T16:41:03.011Z,23.80
2022-09-28T16:43:35.009Z,14.17
2022-09-28T16:46:09.313Z,21.97
2022-09-28T16:48:48.543Z,30.73
2022-09-28T16:51:17.262Z,23.50
2022-09-28T16:54:05.869Z,29.30
2022-09-28T16:56:35.477Z,39.10
2022-09-28T16:59:04.704Z,32.77
2022-09-28T17:01:34.333Z,35.97
2022-09-28T17:04:03.430Z,28.57
2022-09-28T17:06:32.369Z,19.50
2022-09-28T17:09:06.863Z,15.17
2022-09-28T17:11:35.686Z,13.77
2022-09-28T17:14:04.396Z,14.13
2022-09-28T17:17:06.246Z,10.70
2022-09-28T17:19:25.743Z,28.17
2022-09-28T17:21:54.854Z,12.03
2022-09-28T17:24:25.161Z,8.77
2022-09-28T17:26:54.827Z,9.40
2022-09-28T17:29:23.793Z,10.90
2022-09-28T17:31:53.022Z,8.57
2022-09-28T17:34:22.359Z,8.17
2022-09-28T17:36:51.754Z,7.57
2022-09-28T17:39:20.905Z,8.47
2022-09-28T17:41:51.278Z,19.87
2022-09-28T17:44:20.528Z,17.33
2022-09-28T17:46:51.133Z,19.63
2022-09-28T17:49:19.923Z,29.60
2022-09-28T17:51:50.176Z,40.63
2022-09-28T17:54:21.112Z,33.67
2022-09-28T17:56:51.718Z,39.50
2022-09-28T17:59:20.623Z,28.00
2022-09-28T18:01:49.176Z,15.97
2022-09-28T18:04:40.168Z,14.43
2022-09-28T18:07:07.539Z,15.40
2022-09-28T18:09:36.214Z,12.70
2022-09-28T18:12:09.561Z,9.50
2022-09-28T18:14:39.958Z,9.50
2022-09-28T18:17:09.032Z,9.27
2022-09-28T18:19:38.022Z,9.43
2022-09-28T18:22:07.085Z,8.87
2022-09-28T18:24:36.081Z,10.53
2022-09-28T18:27:06.614Z,10.27
2022-09-28T18:29:35.536Z,9.70
2022-09-28T18:32:04.633Z,13.70
2022-09-28T18:34:37.182Z,11.63
2022-09-28T18:37:07.061Z,13.37
2022-09-28T18:39:37.565Z,12.93
2022-09-28T18:42:08.343Z,15.60
2022-09-28T18:44:37.632Z,18.10
2022-09-28T18:47:06.603Z,14.10
2022-09-28T18:49:35.580Z,11.70
2022-09-28T18:52:04.275Z,13.20
2022-09-28T18:54:33.324Z,12.10
2022-09-28T18:57:02.159Z,11.33
2022-09-28T18:59:32.921Z,11.63
2022-09-28T19:02:02.601Z,12.73
2022-09-28T19:04:31.410Z,11.43
2022-09-28T19:07:00.210Z,13.40
2022-09-28T19:09:29.741Z,12.57
2022-09-28T19:11:58.515Z,12.80
2022-09-28T19:14:28.122Z,12.90
2022-09-28T19:16:58.692Z,12.90
2022-09-28T19:19:29.115Z,11.27
2022-09-28T19:21:58.244Z,12.43
2022-09-28T19:24:27.829Z,13.13
2022-09-28T19:26:57.038Z,13.93
2022-09-28T19:29:26.047Z,11.37
2022-09-28T19:31:56.732Z,11.80
2022-09-28T19:34:30.123Z,11.07
2022-09-28T19:37:03.777Z,13.23
2022-09-28T19:39:32.778Z,12.43
2022-09-28T19:42:01.627Z,12.13
2022-09-28T19:44:31.239Z,13.47
2022-09-28T19:47:04.328Z,14.43
2022-09-28T19:49:37.188Z,12.40
2022-09-28T19:52:14.304Z,13.53
2022-09-28T19:54:45.184Z,12.43
2022-09-28T19:57:16.089Z,13.30
2022-09-28T19:59:49.510Z,14.40
2022-09-28T20:02:21.381Z,15.93
2022-09-28T20:04:51.741Z,14.73
2022-09-28T20:07:20.231Z,16.37
2022-09-28T20:09:48.732Z,16.30
2022-09-28T20:12:17.220Z,26.73
2022-09-28T20:14:45.873Z,25.53
2022-09-28T20:17:14.372Z,22.43
2022-09-28T20:19:42.878Z,26.37
2022-09-28T20:22:12.814Z,29.00
2022-09-28T20:24:41.259Z,28.73
2022-09-28T20:27:09.758Z,30.87
2022-09-28T20:29:38.337Z,30.00
2022-09-28T20:32:07.060Z,24.13
2022-09-28T20:34:35.523Z,24.93
2022-09-28T20:37:04.018Z,27.10
2022-09-28T20:39:34.518Z,28.07
2022-09-28T20:42:03.234Z,24.87
2022-09-28T20:44:31.693Z,25.40
2022-09-28T20:47:01.123Z,23.60
2022-09-28T20:49:29.579Z,25.43
2022-09-28T20:51:58.116Z,23.60
2022-09-28T20:54:26.604Z,21.77
2022-09-28T20:56:56.441Z,23.43
2022-09-28T20:59:26.459Z,20.03
2022-09-28T21:01:55.016Z,21.50
2022-09-28T21:04:23.554Z,21.47
2022-09-28T21:06:52.080Z,20.33
2022-09-28T21:09:20.528Z,20.23
2022-09-28T21:11:48.985Z,21.47
2022-09-28T21:14:18.985Z,19.90
2022-09-28T21:16:47.635Z,16.97
2022-09-28T21:19:16.092Z,18.87
2022-09-28T21:21:44.587Z,20.17
2022-09-28T21:24:13.130Z,18.00
2022-09-28T21:26:41.626Z,17.50
2022-09-28T21:29:13.169Z,15.37
2022-09-28T21:31:46.739Z,15.87
2022-09-28T21:34:19.550Z,14.17
2022-09-28T21:36:48.586Z,23.70
2022-09-28T21:39:17.597Z,13.27
2022-09-28T21:41:46.124Z,14.10
2022-09-28T21:44:14.723Z,14.87
2022-09-28T21:46:44.773Z,16.03
2022-09-28T21:49:14.233Z,19.83
2022-09-28T21:51:42.736Z,16.03
2022-09-28T21:54:12.027Z,14.13
2022-09-28T21:56:40.656Z,11.97
2022-09-28T21:59:09.121Z,18.10
2022-09-28T22:01:37.715Z,15.13
2022-09-28T22:04:07.573Z,17.23
2022-09-28T22:06:36.168Z,15.30
2022-09-28T22:09:05.410Z,17.83
2022-09-28T22:11:33.914Z,18.67
2022-09-28T22:14:02.472Z,17.63
2022-09-28T22:16:32.087Z,17.93
2022-09-28T22:19:01.106Z,20.27
2022-09-28T22:21:33.384Z,16.07
2022-09-28T22:24:03.038Z,20.73
2022-09-28T22:26:33.729Z,15.53
2022-09-28T22:29:03.865Z,16.73
2022-09-28T22:31:34.599Z,17.23
2022-09-28T22:34:03.899Z,17.63
2022-09-28T22:36:34.545Z,16.40
2022-09-28T22:39:03.333Z,21.50
2022-09-28T22:41:32.150Z,20.77
2022-09-28T22:44:01.388Z,20.67
2022-09-28T22:46:32.140Z,18.23
2022-09-28T22:49:01.707Z,18.63
2022-09-28T22:51:31.447Z,23.90
2022-09-28T22:54:01.373Z,20.70
2022-09-28T22:56:30.723Z,19.20
2022-09-28T22:58:59.702Z,18.23
2022-09-28T23:01:30.390Z,21.10
2022-09-28T23:03:59.764Z,20.93
2022-09-28T23:06:30.395Z,15.47
2022-09-28T23:08:58.963Z,15.87
2022-09-28T23:11:29.318Z,16.27
2022-09-28T23:13:59.556Z,16.60
2022-09-28T23:16:30.073Z,17.30
2022-09-28T23:18:59.029Z,16.07
2022-09-28T23:21:29.257Z,18.80
2022-09-28T23:24:00.976Z,15.70
2022-09-28T23:26:33.180Z,16.00
2022-09-28T23:29:01.841Z,14.83
2022-09-28T23:31:32.888Z,16.37
2022-09-28T23:34:02.860Z,14.93
2022-09-28T23:36:31.641Z,15.97
2022-09-28T23:39:00.469Z,15.73
2022-09-28T23:41:30.427Z,17.47
2022-09-28T23:43:58.884Z,16.23
2022-09-28T23:46:27.436Z,16.57
2022-09-28T23:48:56.012Z,22.73
2022-09-28T23:51:24.684Z,16.20
2022-09-28T23:53:53.261Z,16.30
2022-09-28T23:56:21.866Z,17.97
2022-09-28T23:58:51.718Z,17.50
